Data for 10/05/2009

Time Sea-Level Adjusted Pressure Absolute Pressure Temperature Relative Humidity Dew Point   
(mb) (inHg) (mb) (inHg) (C) (F) (%) (C) (F)
00:05 1014 29.94 843 24.89 -0.4 31.4 96 -0.9 30.4
00:10 1014 29.94 843 24.89 -0.4 31.3 96 -0.9 30.4
00:15 1014 29.94 843 24.89 -0.4 31.3 96 -1 30.2
00:20 1014 29.94 843 24.89 -0.3 31.5 95 -1 30.1
00:25 1014 29.94 843 24.89 -0.2 31.6 94 -1.1 30
00:30 1014 29.94 843 24.89 -0.2 31.7 94 -1 30.2
00:35 1014 29.94 843 24.89 -0.2 31.6 95 -1 30.3
00:40 1014 29.94 843 24.89 -0.2 31.7 95 -0.8 30.5
00:45 1014 29.94 843 24.89 -0.1 31.8 95 -0.8 30.5
00:50 1014 29.94 843 24.89 0 32.1 94 -0.9 30.4
00:55 1014 29.94 843 24.89 0.1 32.1 94 -0.7 30.7
01:00 1014 29.94 843 24.89 0.1 32.1 95 -0.6 30.9
01:05 1014 29.94 843 24.89 0.1 32.1 96 -0.5 31.2
01:10 1014 29.94 843 24.89 0.1 32.1 96 -0.5 31.1
01:15 1014 29.94 843 24.89 0 32 97 -0.4 31.2
01:20 1014 29.94 843 24.89 -0 32 97 -0.5 31.2
01:25 1014 29.94 843 24.89 -0.1 31.9 97 -0.5 31.1
01:30 1014 29.94 843 24.89 -0 32 97 -0.4 31.2
01:35 1013 29.91 843 24.89 0 32 97 -0.4 31.3
01:40 1014 29.94 843 24.89 -0 32 97 -0.4 31.3
01:45 1014 29.94 843 24.89 -0.1 31.8 98 -0.4 31.2
01:50 1014 29.94 843 24.89 -0.1 31.7 98 -0.5 31.1
01:55 1014 29.94 843 24.89 -0.1 31.8 98 -0.5 31.2
02:00 1014 29.94 843 24.89 -0.1 31.8 98 -0.4 31.2
02:05 1014 29.94 843 24.89 -0.2 31.7 98 -0.5 31.2
02:10 1014 29.94 843 24.89 -0.2 31.7 98 -0.5 31.2
02:15 1014 29.94 843 24.89 -0.2 31.7 98 -0.5 31.1
02:20 1014 29.94 843 24.89 -0.2 31.7 98 -0.4 31.2
02:25 1014 29.94 843 24.89 -0.2 31.7 98 -0.5 31.2
02:30 1014 29.94 843 24.89 -0.2 31.6 98 -0.5 31.2
02:35 1014 29.94 843 24.89 -0.2 31.6 98 -0.4 31.2
02:40 1014 29.94 843 24.89 -0.3 31.5 98 -0.5 31.1
02:45 1014 29.94 843 24.89 -0.4 31.4 98 -0.6 30.9
02:50 1014 29.94 843 24.89 -0.4 31.3 98 -0.6 30.9
02:55 1014 29.94 843 24.89 -0.4 31.3 98 -0.7 30.8
03:00 1014 29.94 843 24.89 -0.4 31.2 98 -0.7 30.8
03:05 1014 29.94 843 24.89 -0.5 31.2 98 -0.7 30.8
03:10 1014 29.94 843 24.89 -0.5 31.1 98 -0.7 30.7
03:15 1014 29.94 843 24.89 -0.5 31.2 99 -0.7 30.8
03:20 1014 29.94 843 24.89 -0.5 31.1 98 -0.7 30.7
03:25 1014 29.94 843 24.89 -0.5 31 99 -0.7 30.7
03:30 1014 29.94 843 24.89 -0.6 31 99 -0.8 30.6
03:35 1014 29.94 843 24.89 -0.6 30.9 99 -0.8 30.6
03:40 1014 29.94 843 24.89 -0.6 30.9 99 -0.8 30.6
03:45 1014 29.94 843 24.89 -0.6 30.9 99 -0.8 30.5
03:50 1014 29.94 843 24.89 -0.6 30.9 99 -0.8 30.6
03:55 1014 29.94 843 24.89 -0.6 30.9 99 -0.8 30.5
04:00 1014 29.94 843 24.89 -0.7 30.8 99 -0.8 30.5
04:05 1014 29.94 843 24.89 -0.7 30.8 99 -0.8 30.5
04:10 1014 29.94 843 24.89 -0.7 30.8 99 -0.8 30.5
04:15 1014 29.94 843 24.89 -0.7 30.8 99 -0.8 30.5
04:20 1014 29.94 843 24.89 -0.7 30.8 99 -0.8 30.6
04:25 1014 29.94 843 24.89 -0.6 30.8 99 -0.8 30.6
04:30 1014 29.94 843 24.89 -0.6 30.9 99 -0.8 30.6
04:35 1014 29.94 843 24.89 -0.6 31 99 -0.7 30.7
04:40 1014 29.94 843 24.89 -0.5 31 99 -0.7 30.7
04:45 1014 29.94 843 24.89 -0.5 31.1 99 -0.7 30.8
04:50 1014 29.94 843 24.89 -0.5 31 99 -0.7 30.8
04:55 1014 29.94 843 24.89 -0.5 31.1 100 -0.5 31
05:00 1014 29.94 843 24.89 -0.4 31.2 100 -0.5 31.1
05:05 1014 29.94 843 24.89 -0.3 31.4 100 -0.4 31.3
05:10 1014 29.94 843 24.89 -0.3 31.4 100 -0.4 31.3
05:15 1014 29.94 843 24.89 -0.3 31.4 100 -0.4 31.3
05:20 1014 29.94 843 24.89 -0.3 31.4 99 -0.4 31.3
05:25 1014 29.94 843 24.89 -0.3 31.4 99 -0.4 31.2
05:30 1014 29.94 843 24.89 -0.3 31.4 100 -0.4 31.3
05:35 1014 29.94 843 24.89 -0.3 31.4 100 -0.4 31.3
05:40 1014 29.94 843 24.89 -0.3 31.4 99 -0.4 31.2
05:45 1014 29.94 843 24.89 -0.4 31.3 99 -0.5 31.1
05:50 1014 29.94 843 24.89 -0.4 31.2 100 -0.5 31.1
05:55 1014 29.94 843 24.89 -0.4 31.3 100 -0.5 31.1
06:00 1014 29.94 843 24.89 -0.4 31.3 99 -0.5 31.1
06:05 1014 29.94 844 24.92 -0.4 31.3 99 -0.5 31.1
06:10 1014 29.94 844 24.92 -0.4 31.3 100 -0.5 31.2
06:15 1014 29.94 843 24.89 -0.4 31.3 100 -0.5 31.1
06:20 1014 29.94 843 24.89 -0.5 31.2 100 -0.5 31
06:25 1014 29.94 843 24.89 -0.5 31.1 99 -0.6 30.9
06:30 1014 29.94 843 24.89 -0.6 31 100 -0.6 30.9
06:35 1014 29.94 844 24.92 -0.6 30.9 100 -0.7 30.8
06:40 1014 29.94 844 24.92 -0.7 30.8 99 -0.8 30.6
06:45 1014 29.94 844 24.92 -0.7 30.7 99 -0.8 30.5
06:50 1014 29.94 844 24.92 -0.7 30.7 100 -0.8 30.6
06:55 1014 29.94 844 24.92 -0.7 30.7 100 -0.8 30.5
07:00 1014 29.94 844 24.92 -0.7 30.7 100 -0.8 30.6
07:05 1014 29.94 844 24.92 -0.7 30.7 100 -0.8 30.6
07:10 1014 29.94 844 24.92 -0.7 30.7 100 -0.8 30.6
07:15 1015 29.97 844 24.92 -0.7 30.7 100 -0.8 30.6
07:20 1015 29.97 844 24.92 -0.8 30.6 100 -0.8 30.5
07:25 1015 29.97 844 24.92 -0.8 30.6 100 -0.8 30.5
07:30 1015 29.97 844 24.92 -0.8 30.6 100 -0.8 30.5
07:35 1015 29.97 844 24.92 -0.8 30.6 100 -0.8 30.5
07:40 1015 29.97 844 24.92 -0.8 30.6 100 -0.8 30.5
07:45 1015 29.97 844 24.92 -0.7 30.7 100 -0.8 30.6
07:50 1015 29.97 844 24.92 -0.7 30.7 100 -0.8 30.6
07:55 1015 29.97 844 24.92 -0.7 30.8 100 -0.7 30.8
08:00 1015 29.97 844 24.92 -0.6 30.9 100 -0.7 30.8
08:05 1015 29.97 844 24.92 -0.6 31 100 -0.6 30.9
08:10 1015 29.97 844 24.92 -0.5 31 100 -0.6 31
08:15 1015 29.97 844 24.92 -0.5 31 100 -0.6 30.9
08:20 1015 29.97 844 24.92 -0.6 30.9 100 -0.7 30.8
08:25 1015 29.97 844 24.92 -0.6 30.9 100 -0.7 30.8
08:30 1015 29.97 844 24.92 -0.6 30.9 100 -0.7 30.8
08:35 1015 29.97 844 24.92 -0.5 31.2 100 -0.5 31
08:40 1015 29.97 844 24.92 -0.4 31.2 99 -0.5 31.1
08:45 1015 29.97 844 24.92 -0.4 31.3 100 -0.4 31.2
08:50 1015 29.97 844 24.92 -0.2 31.6 100 -0.3 31.4
08:55 1015 29.97 844 24.92 -0.3 31.5 99 -0.4 31.2
09:00 1015 29.97 844 24.92 -0.3 31.5 99 -0.5 31.2
09:05 1015 29.97 845 24.95 -0.1 31.9 98 -0.3 31.5
09:10 1015 29.97 845 24.95 0 32 98 -0.2 31.6
09:15 1015 29.97 845 24.95 -0.1 31.9 98 -0.4 31.3
09:20 1016 30 845 24.95 -0.1 31.8 98 -0.5 31.2
09:25 1016 30 845 24.95 -0.1 31.9 98 -0.4 31.3
09:30 1016 30 845 24.95 0 32.1 98 -0.3 31.5
09:35 1016 30 845 24.95 0.3 32.5 98 -0.1 31.9
09:40 1016 30 845 24.95 0.5 32.8 97 0.1 32.1
09:45 1016 30 845 24.95 0.5 33 97 0.1 32.2
09:50 1016 30 845 24.95 0.7 33.2 96 0.2 32.3
09:55 1016 30 845 24.95 0.8 33.4 96 0.2 32.3
10:00 1016 30 845 24.95 0.8 33.4 96 0.2 32.3
10:05 1016 30 845 24.95 0.8 33.5 95 0.1 32.1
10:10 1016 30 845 24.95 0.7 33.3 95 -0 32
10:15 1016 30 845 24.95 0.9 33.7 94 0.1 32.2
10:20 1016 30 845 24.95 1.1 33.9 93 0.1 32.2
10:25 1016 30 845 24.95 0.9 33.7 93 -0.1 31.9
10:30 1016 30 845 24.95 0.9 33.6 94 -0 32
10:35 1016 30 845 24.95 1 33.8 92 -0.1 31.8
10:40 1016 30 845 24.95 0.8 33.5 93 -0.2 31.6
10:45 1016 30 845 24.95 1 33.8 93 0 32
10:50 1016 30 845 24.95 1.4 34.4 92 0.2 32.4
10:55 1016 30 845 24.95 1.7 35 90 0.2 32.3
11:00 1016 30 845 24.95 1.9 35.4 88 0.2 32.3
11:05 1016 30 845 24.95 2 35.6 86 -0 31.9
11:10 1016 30 845 24.95 1.7 35.1 87 -0.2 31.6
11:15 1016 30 845 24.95 1.5 34.8 88 -0.2 31.6
11:20 1016 30 845 24.95 1.6 34.9 88 -0.2 31.7
11:20 1016 30 845 24.95 1.6 35 88 -0.1 31.8
11:25 1016 30 845 24.95 1.8 35.2 87 -0.1 31.8
11:30 1016 30 845 24.95 1.8 35.3 87 -0.2 31.7
11:35 1016 30 846 24.98 1.5 34.7 88 -0.2 31.6
11:40 1016 30 846 24.98 1.5 34.7 87 -0.4 31.2
11:45 1016 30 846 24.98 1 33.8 91 -0.4 31.4
11:50 1016 30 846 24.98 1.1 34.1 89 -0.4 31.2
11:55 1016 30 846 24.98 1.3 34.4 89 -0.3 31.5
12:00 1017 30.03 846 24.98 1 33.8 91 -0.3 31.5
12:05 1017 30.03 846 24.98 0.8 33.4 93 -0.3 31.5
12:10 1017 30.03 846 24.98 0.6 33.1 94 -0.2 31.6
12:15 1017 30.03 846 24.98 0.6 33.1 93 -0.4 31.2
12:20 1017 30.03 846 24.98 0.3 32.6 95 -0.4 31.3
12:25 1017 30.03 846 24.98 0.3 32.5 95 -0.5 31.2
12:30 1017 30.03 846 24.98 0.1 32.2 96 -0.5 31.1
12:35 1017 30.03 846 24.98 0.3 32.5 96 -0.4 31.3
12:40 1017 30.03 846 24.98 0.5 32.8 95 -0.3 31.5
12:45 1017 30.03 846 24.98 0.6 33 95 -0.1 31.8
12:50 1017 30.03 846 24.98 0.8 33.4 93 -0.2 31.7
12:55 1017 30.03 846 24.98 0.8 33.4 94 -0.2 31.7
13:00 1017 30.03 846 24.98 0.8 33.5 93 -0.1 31.8
13:05 1017 30.03 846 24.98 1 33.8 91 -0.3 31.5
13:10 1017 30.03 846 24.98 0.9 33.6 90 -0.6 31
13:15 1017 30.03 846 24.98 0.9 33.6 91 -0.4 31.3
13:20 1017 30.03 846 24.98 1.1 33.9 91 -0.3 31.5
13:25 1017 30.03 846 24.98 0.7 33.2 92 -0.5 31.1
13:30 1017 30.03 846 24.98 0.5 32.8 92 -0.6 30.8
13:35 1017 30.03 846 24.98 0.5 32.8 90 -1 30.2
13:40 1017 30.03 846 24.98 0.6 33.2 91 -0.7 30.8
13:45 1017 30.03 847 25.01 0.7 33.2 91 -0.6 31
13:50 1017 30.03 847 25.01 0.7 33.2 92 -0.4 31.2
13:55 1017 30.03 847 25.01 0.4 32.8 94 -0.4 31.3
14:00 1017 30.03 847 25.01 0.4 32.8 95 -0.4 31.3
14:05 1017 30.03 847 25.01 0.5 32.8 94 -0.4 31.3
14:10 1017 30.03 847 25.01 0.3 32.6 95 -0.4 31.3
14:15 1017 30.03 847 25.01 0.3 32.6 96 -0.3 31.5
14:20 1017 30.03 847 25.01 0.2 32.3 96 -0.3 31.4
14:25 1017 30.03 847 25.01 0.2 32.3 97 -0.3 31.5
14:30 1017 30.03 847 25.01 0.2 32.4 97 -0.2 31.6
14:35 1017 30.03 847 25.01 0.2 32.4 97 -0.2 31.7
14:40 1017 30.03 847 25.01 0.3 32.5 97 -0.2 31.7
14:45 1017 30.03 847 25.01 0.2 32.4 97 -0.2 31.6
14:50 1017 30.03 847 25.01 0.2 32.4 97 -0.2 31.6
14:55 1018 30.06 847 25.01 0.2 32.4 97 -0.2 31.7
15:00 1018 30.06 847 25.01 0.3 32.6 97 -0.1 31.8
15:05 1018 30.06 847 25.01 0.5 32.8 97 0 32
15:10 1018 30.06 847 25.01 0.5 32.9 97 0 32
15:15 1018 30.06 847 25.01 0.6 33.1 96 0 32.1
15:20 1018 30.06 847 25.01 0.5 33 96 -0.1 31.9
15:25 1018 30.06 847 25.01 0.5 32.9 96 -0.1 31.9
15:30 1018 30.06 847 25.01 0.5 33 96 -0.1 31.8
15:40 1018 30.06 847 25.01 0.6 33 95 -0.1 31.9
15:45 1018 30.06 847 25.01 0.6 33.1 95 -0.1 31.9
15:50 1018 30.06 847 25.01 0.7 33.2 95 -0.1 31.9
15:55 1018 30.06 847 25.01 0.7 33.3 95 -0 32
16:00 1018 30.06 847 25.01 0.6 33 94 -0.4 31.4
16:05 1018 30.06 848 25.04 0.1 32.2 96 -0.5 31.1
16:10 1018 30.06 848 25.04 0 32 96 -0.5 31
16:15 1018 30.06 848 25.04 0.1 32.1 96 -0.6 31
16:20 1018 30.06 848 25.04 -0 31.9 96 -0.6 30.9
16:25 1018 30.06 848 25.04 -0.1 31.9 97 -0.5 31
16:30 1019 30.09 848 25.04 -0.1 31.8 97 -0.5 31
16:35 1019 30.09 848 25.04 -0.1 31.8 97 -0.5 31.1
16:40 1019 30.09 848 25.04 -0.1 31.8 97 -0.5 31.2
16:45 1019 30.09 848 25.04 -0.1 31.9 97 -0.5 31.2
16:50 1019 30.09 848 25.04 -0 31.9 98 -0.4 31.3
16:55 1019 30.09 848 25.04 -0 31.9 98 -0.4 31.3
17:00 1019 30.09 848 25.04 0.1 32.2 97 -0.3 31.5
17:05 1019 30.09 848 25.04 0.1 32.2 97 -0.3 31.4
17:10 1019 30.09 848 25.04 0.3 32.5 97 -0.2 31.7
17:15 1019 30.09 848 25.04 0.5 32.9 96 -0 31.9
17:20 1019 30.09 848 25.04 0.5 33 94 -0.3 31.4
17:25 1019 30.09 848 25.04 0.4 32.8 95 -0.4 31.3
17:30 1019 30.09 848 25.04 0.4 32.8 94 -0.3 31.4
17:35 1019 30.09 848 25.04 0.4 32.8 94 -0.4 31.3
17:40 1019 30.09 848 25.04 0.5 32.8 94 -0.4 31.2
17:45 1019 30.09 848 25.04 0.5 32.9 94 -0.4 31.3
17:50 1019 30.09 848 25.04 0.7 33.3 93 -0.3 31.4
17:55 1019 30.09 848 25.04 0.7 33.3 92 -0.3 31.4
18:00 1019 30.09 849 25.07 0.8 33.5 92 -0.4 31.3
18:05 1019 30.09 849 25.07 0.7 33.3 91 -0.6 30.9
18:10 1019 30.09 849 25.07 0.7 33.2 91 -0.7 30.7
18:15 1020 30.12 849 25.07 0.7 33.2 92 -0.5 31
18:20 1020 30.12 849 25.07 0.6 33.1 92 -0.6 31
18:25 1020 30.12 849 25.07 0.6 33 92 -0.5 31.1
18:30 1020 30.12 849 25.07 0.5 32.9 93 -0.5 31.1
18:35 1020 30.12 849 25.07 0.5 33 91 -0.7 30.8
18:40 1020 30.12 849 25.07 0.6 33.1 90 -0.8 30.5
18:45 1020 30.12 849 25.07 0.5 33 91 -0.8 30.5
18:50 1020 30.12 849 25.07 0.7 33.3 90 -0.8 30.6
18:55 1020 30.12 849 25.07 0.7 33.3 89 -0.9 30.4
19:00 1020 30.12 849 25.07 0.7 33.2 90 -0.8 30.5
19:05 1020 30.12 849 25.07 0.6 33.1 89 -1 30.2
19:10 1020 30.12 849 25.07 0.6 33.1 90 -0.8 30.5
19:15 1020 30.12 849 25.07 0.7 33.2 86 -1.4 29.5
19:20 1020 30.12 849 25.07 0.7 33.2 87 -1.2 29.9
19:25 1020 30.12 849 25.07 0.6 33 88 -1.2 29.9
19:30 1020 30.12 849 25.07 0.7 33.2 89 -1 30.2
19:35 1020 30.12 850 25.1 0.8 33.4 90 -0.7 30.7
19:40 1020 30.12 850 25.1 0.7 33.2 91 -0.6 30.8
19:45 1020 30.12 850 25.1 0.6 33 90 -0.9 30.4
19:50 1020 30.12 850 25.1 0.6 33 88 -1.3 29.7
19:55 1020 30.12 850 25.1 0.6 33 87 -1.4 29.5
20:00 1020 30.12 850 25.1 0.5 32.9 92 -0.7 30.7
20:05 1021 30.15 850 25.1 0.4 32.7 92 -0.8 30.6
20:10 1021 30.15 850 25.1 0.3 32.5 91 -0.9 30.3
20:15 1021 30.15 850 25.1 0.3 32.5 91 -1 30.2
20:20 1021 30.15 850 25.1 0.3 32.6 92 -0.8 30.6
20:25 1021 30.15 850 25.1 0.3 32.6 94 -0.5 31
20:30 1021 30.15 850 25.1 0.4 32.7 93 -0.6 30.9
20:35 1021 30.15 850 25.1 0.3 32.6 93 -0.6 30.8
20:40 1021 30.15 850 25.1 0.4 32.8 93 -0.5 31.1
20:45 1021 30.15 850 25.1 0.5 32.9 93 -0.5 31.1
20:50 1021 30.15 850 25.1 0.6 33 92 -0.5 31.1
20:55 1021 30.15 850 25.1 0.6 33.1 93 -0.4 31.2
21:00 1021 30.15 850 25.1 0.5 33 94 -0.3 31.4
21:05 1021 30.15 850 25.1 0.3 32.5 94 -0.6 31
21:10 1021 30.15 850 25.1 0.1 32.2 96 -0.5 31
21:15 1021 30.15 850 25.1 0 32.1 96 -0.5 31.1
21:20 1021 30.15 850 25.1 -0.1 31.9 97 -0.5 31.1
21:25 1021 30.15 850 25.1 -0.1 31.8 97 -0.5 31.1
21:30 1021 30.15 850 25.1 -0.1 31.8 97 -0.5 31.1
21:35 1021 30.15 850 25.1 -0.1 31.9 97 -0.5 31.1
21:40 1021 30.15 850 25.1 -0 31.9 96 -0.6 30.9
21:45 1021 30.15 850 25.1 -0.1 31.8 96 -0.7 30.7
21:50 1021 30.15 850 25.1 -0.1 31.8 95 -0.9 30.4
21:55 1021 30.15 850 25.1 -0.1 31.8 95 -0.8 30.5
22:00 1021 30.15 850 25.1 -0.2 31.7 95 -0.8 30.5
22:05 1021 30.15 850 25.1 -0.2 31.7 95 -0.9 30.3
22:10 1021 30.15 850 25.1 -0.3 31.5 95 -0.9 30.3
22:15 1021 30.15 850 25.1 -0.3 31.5 96 -0.9 30.5
22:20 1021 30.15 850 25.1 -0.3 31.5 95 -0.9 30.4
22:25 1021 30.15 850 25.1 -0.3 31.4 96 -0.9 30.4
22:30 1021 30.15 850 25.1 -0.4 31.4 96 -0.9 30.4
22:35 1021 30.15 850 25.1 -0.4 31.2 96 -0.9 30.3
22:40 1021 30.15 850 25.1 -0.3 31.4 96 -1 30.3
22:45 1021 30.15 850 25.1 -0.1 31.8 95 -0.9 30.4
22:50 1021 30.15 850 25.1 -0.1 31.8 94 -0.9 30.4
22:55 1021 30.15 850 25.1 -0.2 31.6 93 -1.2 29.8
23:00 1021 30.15 850 25.1 -0.3 31.4 94 -1.2 29.8
23:05 1021 30.15 850 25.1 -0.1 31.8 93 -1.1 30
23:10 1021 30.15 850 25.1 0.1 32.1 92 -1.1 30
23:15 1021 30.15 850 25.1 0.1 32.2 92 -1 30.1
23:20 1021 30.15 850 25.1 0.2 32.4 91 -1.1 30
23:25 1021 30.15 850 25.1 0.4 32.7 90 -1 30.2
23:30 1021 30.15 850 25.1 0.5 32.8 89 -1.2 29.9
23:35 1021 30.15 850 25.1 0.4 32.7 88 -1.4 29.5
23:40 1021 30.15 851 25.13 0.4 32.8 87 -1.5 29.4
23:45 1021 30.15 851 25.13 0.4 32.7 87 -1.5 29.2
23:50 1021 30.15 851 25.13 0.4 32.7 87 -1.5 29.4
23:55 1021 30.15 851 25.13 0.3 32.6 88 -1.4 29.4
24:00 1021 30.15 850 25.1 0.2 32.3 88 -1.6 29.2